sensor_id;sensor_type;location;lat;lon;timestamp;temperature;humidity
52211;DHT22;38179;52.756;6.906;2023-01-23T00:01:58;1.60;99.90
52211;DHT22;38179;52.756;6.906;2023-01-23T00:04:24;1.60;99.90
52211;DHT22;38179;52.756;6.906;2023-01-23T00:06:50;1.60;99.90
52211;DHT22;38179;52.756;6.906;2023-01-23T00:09:16;1.60;99.90
52211;DHT22;38179;52.756;6.906;2023-01-23T00:11:42;1.60;99.90
52211;DHT22;38179;52.756;6.906;2023-01-23T00:14:09;1.60;99.90
52211;DHT22;38179;52.756;6.906;2023-01-23T00:16:35;1.60;99.90
52211;DHT22;38179;52.756;6.906;2023-01-23T00:19:01;1.60;99.90
52211;DHT22;38179;52.756;6.906;2023-01-23T00:21:28;1.50;99.90
52211;DHT22;38179;52.756;6.906;2023-01-23T00:23:56;1.50;99.90
52211;DHT22;38179;52.756;6.906;2023-01-23T00:26:25;1.60;99.90
52211;DHT22;38179;52.756;6.906;2023-01-23T00:28:52;1.50;99.90
52211;DHT22;38179;52.756;6.906;2023-01-23T00:31:19;1.60;99.90
52211;DHT22;38179;52.756;6.906;2023-01-23T00:33:46;1.60;99.90
52211;DHT22;38179;52.756;6.906;2023-01-23T00:36:13;1.60;99.90
52211;DHT22;38179;52.756;6.906;2023-01-23T00:38:40;1.60;99.90
52211;DHT22;38179;52.756;6.906;2023-01-23T00:41:06;1.60;99.90
52211;DHT22;38179;52.756;6.906;2023-01-23T00:43:32;1.60;99.90
52211;DHT22;38179;52.756;6.906;2023-01-23T00:45:58;1.60;99.90
52211;DHT22;38179;52.756;6.906;2023-01-23T00:48:24;1.60;99.90
52211;DHT22;38179;52.756;6.906;2023-01-23T00:50:50;1.70;99.90
52211;DHT22;38179;52.756;6.906;2023-01-23T00:53:16;1.60;99.90
52211;DHT22;38179;52.756;6.906;2023-01-23T00:55:42;1.60;99.90
52211;DHT22;38179;52.756;6.906;2023-01-23T00:58:08;1.70;99.90
52211;DHT22;38179;52.756;6.906;2023-01-23T01:00:35;1.60;99.90
52211;DHT22;38179;52.756;6.906;2023-01-23T01:03:02;1.70;99.90
52211;DHT22;38179;52.756;6.906;2023-01-23T01:05:28;1.60;99.90
52211;DHT22;38179;52.756;6.906;2023-01-23T01:07:54;1.60;99.90
52211;DHT22;38179;52.756;6.906;2023-01-23T01:10:20;1.60;99.90
52211;DHT22;38179;52.756;6.906;2023-01-23T01:12:46;1.60;99.90
52211;DHT22;38179;52.756;6.906;2023-01-23T01:15:12;1.60;99.90
52211;DHT22;38179;52.756;6.906;2023-01-23T01:17:38;1.70;99.90
52211;DHT22;38179;52.756;6.906;2023-01-23T01:20:06;1.70;99.90
52211;DHT22;38179;52.756;6.906;2023-01-23T01:22:32;1.70;99.90
52211;DHT22;38179;52.756;6.906;2023-01-23T01:24:58;1.70;99.90
52211;DHT22;38179;52.756;6.906;2023-01-23T01:27:24;1.70;99.90
52211;DHT22;38179;52.756;6.906;2023-01-23T01:29:50;1.70;99.90
52211;DHT22;38179;52.756;6.906;2023-01-23T01:32:16;1.70;99.90
52211;DHT22;38179;52.756;6.906;2023-01-23T01:34:42;1.70;99.90
52211;DHT22;38179;52.756;6.906;2023-01-23T01:37:07;1.70;99.90
52211;DHT22;38179;52.756;6.906;2023-01-23T01:39:33;1.70;99.90
52211;DHT22;38179;52.756;6.906;2023-01-23T01:41:59;1.70;99.90
52211;DHT22;38179;52.756;6.906;2023-01-23T01:44:25;1.70;99.90
52211;DHT22;38179;52.756;6.906;2023-01-23T01:46:52;1.70;99.90
52211;DHT22;38179;52.756;6.906;2023-01-23T01:49:25;1.70;99.90
52211;DHT22;38179;52.756;6.906;2023-01-23T01:51:58;1.70;99.90
52211;DHT22;38179;52.756;6.906;2023-01-23T01:54:37;1.70;99.90
52211;DHT22;38179;52.756;6.906;2023-01-23T01:59:50;1.70;99.90
52211;DHT22;38179;52.756;6.906;2023-01-23T02:02:23;1.70;99.90
52211;DHT22;38179;52.756;6.906;2023-01-23T02:04:53;1.70;99.90
52211;DHT22;38179;52.756;6.906;2023-01-23T02:07:30;1.70;99.90
52211;DHT22;38179;52.756;6.906;2023-01-23T02:09:57;1.70;99.90
52211;DHT22;38179;52.756;6.906;2023-01-23T02:12:24;1.70;99.90
52211;DHT22;38179;52.756;6.906;2023-01-23T02:14:51;1.70;99.90
52211;DHT22;38179;52.756;6.906;2023-01-23T02:17:18;1.70;99.90
52211;DHT22;38179;52.756;6.906;2023-01-23T02:25:31;1.70;99.90
52211;DHT22;38179;52.756;6.906;2023-01-23T02:27:54;1.80;99.90
52211;DHT22;38179;52.756;6.906;2023-01-23T02:30:20;1.70;99.90
52211;DHT22;38179;52.756;6.906;2023-01-23T02:32:46;1.70;99.90
52211;DHT22;38179;52.756;6.906;2023-01-23T02:35:29;1.70;99.90
52211;DHT22;38179;52.756;6.906;2023-01-23T02:37:59;1.70;99.90
52211;DHT22;38179;52.756;6.906;2023-01-23T02:40:39;1.70;99.90
52211;DHT22;38179;52.756;6.906;2023-01-23T02:43:11;1.70;99.90
52211;DHT22;38179;52.756;6.906;2023-01-23T02:45:38;1.70;99.90
52211;DHT22;38179;52.756;6.906;2023-01-23T02:48:04;1.70;99.90
52211;DHT22;38179;52.756;6.906;2023-01-23T02:50:32;1.70;99.90
52211;DHT22;38179;52.756;6.906;2023-01-23T02:52:58;1.70;99.90
52211;DHT22;38179;52.756;6.906;2023-01-23T02:55:24;1.70;99.90
52211;DHT22;38179;52.756;6.906;2023-01-23T02:58:01;1.70;99.90
52211;DHT22;38179;52.756;6.906;2023-01-23T03:00:46;1.70;99.90
52211;DHT22;38179;52.756;6.906;2023-01-23T03:03:12;1.70;99.90
52211;DHT22;38179;52.756;6.906;2023-01-23T03:05:40;1.70;99.90
52211;DHT22;38179;52.756;6.906;2023-01-23T03:08:06;1.70;99.90
52211;DHT22;38179;52.756;6.906;2023-01-23T03:10:33;1.70;99.90
52211;DHT22;38179;52.756;6.906;2023-01-23T03:12:59;1.70;99.90
52211;DHT22;38179;52.756;6.906;2023-01-23T03:15:33;1.70;99.90
52211;DHT22;38179;52.756;6.906;2023-01-23T03:17:59;1.70;99.90
52211;DHT22;38179;52.756;6.906;2023-01-23T03:20:25;1.70;99.90
52211;DHT22;38179;52.756;6.906;2023-01-23T03:22:52;1.70;99.90
52211;DHT22;38179;52.756;6.906;2023-01-23T03:25:18;1.70;99.90
52211;DHT22;38179;52.756;6.906;2023-01-23T03:27:44;1.70;99.90
52211;DHT22;38179;52.756;6.906;2023-01-23T03:30:12;1.70;99.90
52211;DHT22;38179;52.756;6.906;2023-01-23T03:32:39;1.70;99.90
52211;DHT22;38179;52.756;6.906;2023-01-23T03:35:06;1.70;99.90
52211;DHT22;38179;52.756;6.906;2023-01-23T03:37:32;1.70;99.90
52211;DHT22;38179;52.756;6.906;2023-01-23T03:39:58;1.70;99.90
52211;DHT22;38179;52.756;6.906;2023-01-23T03:42:42;1.70;99.90
52211;DHT22;38179;52.756;6.906;2023-01-23T03:45:08;1.70;99.90
52211;DHT22;38179;52.756;6.906;2023-01-23T03:47:35;1.80;99.90
52211;DHT22;38179;52.756;6.906;2023-01-23T03:50:01;1.80;99.90
52211;DHT22;38179;52.756;6.906;2023-01-23T03:52:27;1.80;99.90
52211;DHT22;38179;52.756;6.906;2023-01-23T03:54:52;1.80;99.90
52211;DHT22;38179;52.756;6.906;2023-01-23T03:57:18;1.80;99.90
52211;DHT22;38179;52.756;6.906;2023-01-23T03:59:44;1.80;99.90
52211;DHT22;38179;52.756;6.906;2023-01-23T04:02:10;1.80;99.90
52211;DHT22;38179;52.756;6.906;2023-01-23T04:04:36;1.80;99.90
52211;DHT22;38179;52.756;6.906;2023-01-23T04:07:03;1.80;99.90
52211;DHT22;38179;52.756;6.906;2023-01-23T04:09:29;1.80;99.90
52211;DHT22;38179;52.756;6.906;2023-01-23T04:11:55;1.80;99.90
52211;DHT22;38179;52.756;6.906;2023-01-23T04:14:24;1.80;99.90
52211;DHT22;38179;52.756;6.906;2023-01-23T04:16:50;1.80;99.90
52211;DHT22;38179;52.756;6.906;2023-01-23T04:19:17;1.80;99.90
52211;DHT22;38179;52.756;6.906;2023-01-23T04:21:46;1.80;99.90
52211;DHT22;38179;52.756;6.906;2023-01-23T04:24:14;1.80;99.90
52211;DHT22;38179;52.756;6.906;2023-01-23T04:26:40;1.80;99.90
52211;DHT22;38179;52.756;6.906;2023-01-23T04:29:06;1.70;99.90
52211;DHT22;38179;52.756;6.906;2023-01-23T04:31:33;1.70;99.90
52211;DHT22;38179;52.756;6.906;2023-01-23T04:34:00;1.80;99.90
52211;DHT22;38179;52.756;6.906;2023-01-23T04:36:26;1.70;99.90
52211;DHT22;38179;52.756;6.906;2023-01-23T04:38:52;1.70;99.90
52211;DHT22;38179;52.756;6.906;2023-01-23T04:41:24;1.70;99.90
52211;DHT22;38179;52.756;6.906;2023-01-23T04:43:50;1.70;99.90
52211;DHT22;38179;52.756;6.906;2023-01-23T04:46:16;1.70;99.90
52211;DHT22;38179;52.756;6.906;2023-01-23T04:48:42;1.70;99.90
52211;DHT22;38179;52.756;6.906;2023-01-23T04:51:08;1.70;99.90
52211;DHT22;38179;52.756;6.906;2023-01-23T04:53:36;1.80;99.90
52211;DHT22;38179;52.756;6.906;2023-01-23T04:56:02;1.80;99.90
52211;DHT22;38179;52.756;6.906;2023-01-23T04:58:29;1.80;99.90
52211;DHT22;38179;52.756;6.906;2023-01-23T05:01:01;1.80;99.90
52211;DHT22;38179;52.756;6.906;2023-01-23T05:03:27;1.70;99.90
52211;DHT22;38179;52.756;6.906;2023-01-23T05:05:53;1.70;99.90
52211;DHT22;38179;52.756;6.906;2023-01-23T05:08:19;1.70;99.90
52211;DHT22;38179;52.756;6.906;2023-01-23T05:10:45;1.70;99.90
52211;DHT22;38179;52.756;6.906;2023-01-23T05:13:11;1.70;99.90
52211;DHT22;38179;52.756;6.906;2023-01-23T05:15:37;1.70;99.90
52211;DHT22;38179;52.756;6.906;2023-01-23T05:18:03;1.70;99.90
52211;DHT22;38179;52.756;6.906;2023-01-23T05:20:29;1.70;99.90
52211;DHT22;38179;52.756;6.906;2023-01-23T05:22:55;1.70;99.90
52211;DHT22;38179;52.756;6.906;2023-01-23T05:25:24;1.70;99.90
52211;DHT22;38179;52.756;6.906;2023-01-23T05:27:50;1.70;99.90
52211;DHT22;38179;52.756;6.906;2023-01-23T05:30:17;1.70;99.90
52211;DHT22;38179;52.756;6.906;2023-01-23T05:32:44;1.70;99.90
52211;DHT22;38179;52.756;6.906;2023-01-23T05:35:10;1.70;99.90
52211;DHT22;38179;52.756;6.906;2023-01-23T05:37:36;1.70;99.90
52211;DHT22;38179;52.756;6.906;2023-01-23T05:40:04;1.70;99.90
52211;DHT22;38179;52.756;6.906;2023-01-23T05:42:31;1.70;99.90
52211;DHT22;38179;52.756;6.906;2023-01-23T05:44:57;1.70;99.90
52211;DHT22;38179;52.756;6.906;2023-01-23T05:47:23;1.70;99.90
52211;DHT22;38179;52.756;6.906;2023-01-23T05:49:49;1.70;99.90
52211;DHT22;38179;52.756;6.906;2023-01-23T05:52:15;1.70;99.90
52211;DHT22;38179;52.756;6.906;2023-01-23T05:54:41;1.70;99.90
52211;DHT22;38179;52.756;6.906;2023-01-23T05:57:08;1.70;99.90
52211;DHT22;38179;52.756;6.906;2023-01-23T05:59:34;1.70;99.90
52211;DHT22;38179;52.756;6.906;2023-01-23T06:02:00;1.70;99.90
52211;DHT22;38179;52.756;6.906;2023-01-23T06:04:26;1.70;99.90
52211;DHT22;38179;52.756;6.906;2023-01-23T06:06:52;1.70;99.90
52211;DHT22;38179;52.756;6.906;2023-01-23T06:09:18;1.70;99.90
52211;DHT22;38179;52.756;6.906;2023-01-23T06:11:43;1.80;99.90
52211;DHT22;38179;52.756;6.906;2023-01-23T06:14:09;1.70;99.90
52211;DHT22;38179;52.756;6.906;2023-01-23T06:16:35;1.70;99.90
52211;DHT22;38179;52.756;6.906;2023-01-23T06:19:01;1.80;99.90
52211;DHT22;38179;52.756;6.906;2023-01-23T06:21:27;1.70;99.90
52211;DHT22;38179;52.756;6.906;2023-01-23T06:23:53;1.70;99.90
52211;DHT22;38179;52.756;6.906;2023-01-23T06:26:19;1.70;99.90
52211;DHT22;38179;52.756;6.906;2023-01-23T06:28:45;1.70;99.90
52211;DHT22;38179;52.756;6.906;2023-01-23T06:31:11;1.70;99.90
52211;DHT22;38179;52.756;6.906;2023-01-23T06:33:37;1.70;99.90
52211;DHT22;38179;52.756;6.906;2023-01-23T06:36:05;1.70;99.90
52211;DHT22;38179;52.756;6.906;2023-01-23T06:38:31;1.70;99.90
52211;DHT22;38179;52.756;6.906;2023-01-23T06:40:57;1.70;99.90
52211;DHT22;38179;52.756;6.906;2023-01-23T06:43:24;1.70;99.90
52211;DHT22;38179;52.756;6.906;2023-01-23T06:45:50;1.70;99.90
52211;DHT22;38179;52.756;6.906;2023-01-23T06:48:16;1.70;99.90
52211;DHT22;38179;52.756;6.906;2023-01-23T06:50:43;1.70;99.90
52211;DHT22;38179;52.756;6.906;2023-01-23T06:53:15;1.70;99.90
52211;DHT22;38179;52.756;6.906;2023-01-23T06:55:41;1.70;99.90
52211;DHT22;38179;52.756;6.906;2023-01-23T06:58:07;1.70;99.90
52211;DHT22;38179;52.756;6.906;2023-01-23T07:00:33;2.00;99.90
52211;DHT22;38179;52.756;6.906;2023-01-23T07:02:59;1.80;99.90
52211;DHT22;38179;52.756;6.906;2023-01-23T07:05:34;1.70;99.90
52211;DHT22;38179;52.756;6.906;2023-01-23T07:08:00;1.70;99.90
52211;DHT22;38179;52.756;6.906;2023-01-23T07:10:27;1.70;99.90
52211;DHT22;38179;52.756;6.906;2023-01-23T07:12:52;1.70;99.90
52211;DHT22;38179;52.756;6.906;2023-01-23T07:15:18;1.70;99.90
52211;DHT22;38179;52.756;6.906;2023-01-23T07:17:44;1.70;99.90
52211;DHT22;38179;52.756;6.906;2023-01-23T07:20:11;1.70;99.90
52211;DHT22;38179;52.756;6.906;2023-01-23T07:22:37;1.70;99.90
52211;DHT22;38179;52.756;6.906;2023-01-23T07:25:03;1.70;99.90
52211;DHT22;38179;52.756;6.906;2023-01-23T07:27:30;1.70;99.90
52211;DHT22;38179;52.756;6.906;2023-01-23T07:29:57;1.70;99.90
52211;DHT22;38179;52.756;6.906;2023-01-23T07:32:23;1.70;99.90
52211;DHT22;38179;52.756;6.906;2023-01-23T07:34:49;1.70;99.90
52211;DHT22;38179;52.756;6.906;2023-01-23T07:37:17;1.70;99.90
52211;DHT22;38179;52.756;6.906;2023-01-23T07:39:43;1.70;99.90
52211;DHT22;38179;52.756;6.906;2023-01-23T07:42:10;1.70;99.90
52211;DHT22;38179;52.756;6.906;2023-01-23T07:44:36;1.70;99.90
52211;DHT22;38179;52.756;6.906;2023-01-23T07:47:02;1.70;99.90
52211;DHT22;38179;52.756;6.906;2023-01-23T07:49:28;1.70;99.90
52211;DHT22;38179;52.756;6.906;2023-01-23T07:51:54;1.70;99.90
52211;DHT22;38179;52.756;6.906;2023-01-23T07:54:20;1.70;99.90
52211;DHT22;38179;52.756;6.906;2023-01-23T07:56:48;1.70;99.90
52211;DHT22;38179;52.756;6.906;2023-01-23T07:59:15;1.70;99.90
52211;DHT22;38179;52.756;6.906;2023-01-23T08:01:42;1.70;99.90
52211;DHT22;38179;52.756;6.906;2023-01-23T08:04:07;1.80;99.90
52211;DHT22;38179;52.756;6.906;2023-01-23T08:06:33;1.80;99.90
52211;DHT22;38179;52.756;6.906;2023-01-23T08:09:00;1.80;99.90
52211;DHT22;38179;52.756;6.906;2023-01-23T08:11:26;1.80;99.90
52211;DHT22;38179;52.756;6.906;2023-01-23T08:13:52;1.80;99.90
52211;DHT22;38179;52.756;6.906;2023-01-23T08:16:18;1.80;99.90
52211;DHT22;38179;52.756;6.906;2023-01-23T08:18:45;1.80;99.90
52211;DHT22;38179;52.756;6.906;2023-01-23T08:21:11;1.80;99.90
52211;DHT22;38179;52.756;6.906;2023-01-23T08:23:37;1.80;99.90
52211;DHT22;38179;52.756;6.906;2023-01-23T08:26:06;1.80;99.90
52211;DHT22;38179;52.756;6.906;2023-01-23T08:28:33;1.80;99.90
52211;DHT22;38179;52.756;6.906;2023-01-23T08:31:01;1.80;99.90
52211;DHT22;38179;52.756;6.906;2023-01-23T08:33:28;1.80;99.90
52211;DHT22;38179;52.756;6.906;2023-01-23T08:35:56;1.90;99.90
52211;DHT22;38179;52.756;6.906;2023-01-23T08:38:23;1.90;99.90
52211;DHT22;38179;52.756;6.906;2023-01-23T08:40:50;1.90;99.90
52211;DHT22;38179;52.756;6.906;2023-01-23T08:43:17;1.90;99.90
52211;DHT22;38179;52.756;6.906;2023-01-23T08:45:57;1.90;99.90
52211;DHT22;38179;52.756;6.906;2023-01-23T08:48:25;1.90;99.90
52211;DHT22;38179;52.756;6.906;2023-01-23T08:50:57;1.90;99.90
52211;DHT22;38179;52.756;6.906;2023-01-23T08:53:23;1.90;99.90
52211;DHT22;38179;52.756;6.906;2023-01-23T08:55:49;1.90;99.90
52211;DHT22;38179;52.756;6.906;2023-01-23T08:58:15;1.90;99.90
52211;DHT22;38179;52.756;6.906;2023-01-23T09:00:41;1.90;99.90
52211;DHT22;38179;52.756;6.906;2023-01-23T09:03:08;1.90;99.90
52211;DHT22;38179;52.756;6.906;2023-01-23T09:05:37;1.90;99.90
52211;DHT22;38179;52.756;6.906;2023-01-23T09:08:03;1.90;99.90
52211;DHT22;38179;52.756;6.906;2023-01-23T09:10:29;1.90;99.90
52211;DHT22;38179;52.756;6.906;2023-01-23T09:12:56;2.00;99.90
52211;DHT22;38179;52.756;6.906;2023-01-23T09:15:22;2.00;99.90
52211;DHT22;38179;52.756;6.906;2023-01-23T09:17:48;2.00;99.90
52211;DHT22;38179;52.756;6.906;2023-01-23T09:20:15;2.00;99.90
52211;DHT22;38179;52.756;6.906;2023-01-23T09:22:41;2.00;99.90
52211;DHT22;38179;52.756;6.906;2023-01-23T09:25:12;2.00;99.90
52211;DHT22;38179;52.756;6.906;2023-01-23T09:27:39;2.10;99.90
52211;DHT22;38179;52.756;6.906;2023-01-23T09:30:05;2.00;99.90
52211;DHT22;38179;52.756;6.906;2023-01-23T09:32:32;2.00;99.90
52211;DHT22;38179;52.756;6.906;2023-01-23T09:34:58;2.10;99.90
52211;DHT22;38179;52.756;6.906;2023-01-23T09:37:24;2.10;99.90
52211;DHT22;38179;52.756;6.906;2023-01-23T09:39:50;2.10;99.90
52211;DHT22;38179;52.756;6.906;2023-01-23T09:42:22;2.10;99.90
52211;DHT22;38179;52.756;6.906;2023-01-23T09:44:59;2.10;99.90
52211;DHT22;38179;52.756;6.906;2023-01-23T09:47:39;2.10;99.90
52211;DHT22;38179;52.756;6.906;2023-01-23T09:50:12;2.10;99.90
52211;DHT22;38179;52.756;6.906;2023-01-23T09:52:44;2.10;99.90
52211;DHT22;38179;52.756;6.906;2023-01-23T09:55:39;2.10;99.90
52211;DHT22;38179;52.756;6.906;2023-01-23T09:58:16;2.20;99.90
52211;DHT22;38179;52.756;6.906;2023-01-23T10:00:43;2.20;99.90
52211;DHT22;38179;52.756;6.906;2023-01-23T10:03:14;2.20;99.90
52211;DHT22;38179;52.756;6.906;2023-01-23T10:11:18;2.20;99.90
52211;DHT22;38179;52.756;6.906;2023-01-23T10:25:20;2.30;99.90
52211;DHT22;38179;52.756;6.906;2023-01-23T10:27:49;2.30;99.90
52211;DHT22;38179;52.756;6.906;2023-01-23T10:30:20;2.30;99.90
52211;DHT22;38179;52.756;6.906;2023-01-23T10:40:48;2.30;99.90
52211;DHT22;38179;52.756;6.906;2023-01-23T10:43:34;2.30;99.90
52211;DHT22;38179;52.756;6.906;2023-01-23T10:46:03;2.40;99.90
52211;DHT22;38179;52.756;6.906;2023-01-23T10:51:29;2.40;99.90
52211;DHT22;38179;52.756;6.906;2023-01-23T10:54:20;2.40;99.90
52211;DHT22;38179;52.756;6.906;2023-01-23T10:57:01;2.40;99.90
52211;DHT22;38179;52.756;6.906;2023-01-23T11:02:36;2.50;99.90
52211;DHT22;38179;52.756;6.906;2023-01-23T11:08:00;2.50;99.90
52211;DHT22;38179;52.756;6.906;2023-01-23T11:10:26;2.50;99.90
52211;DHT22;38179;52.756;6.906;2023-01-23T11:12:53;2.60;99.90
52211;DHT22;38179;52.756;6.906;2023-01-23T11:15:24;2.60;99.90
52211;DHT22;38179;52.756;6.906;2023-01-23T11:17:52;2.60;99.90
52211;DHT22;38179;52.756;6.906;2023-01-23T11:25:37;2.70;99.90
52211;DHT22;38179;52.756;6.906;2023-01-23T11:31:07;2.80;99.90
52211;DHT22;38179;52.756;6.906;2023-01-23T11:38:56;2.70;99.90
52211;DHT22;38179;52.756;6.906;2023-01-23T11:41:32;2.70;99.90
52211;DHT22;38179;52.756;6.906;2023-01-23T11:44:05;2.80;99.90
52211;DHT22;38179;52.756;6.906;2023-01-23T11:47:04;2.80;99.90
52211;DHT22;38179;52.756;6.906;2023-01-23T12:03:18;2.80;99.90
52211;DHT22;38179;52.756;6.906;2023-01-23T12:08:42;2.80;99.90
52211;DHT22;38179;52.756;6.906;2023-01-23T12:11:13;2.90;99.90
52211;DHT22;38179;52.756;6.906;2023-01-23T12:13:54;2.90;99.90
52211;DHT22;38179;52.756;6.906;2023-01-23T12:19:35;2.90;99.90
52211;DHT22;38179;52.756;6.906;2023-01-23T12:22:22;2.90;99.90
52211;DHT22;38179;52.756;6.906;2023-01-23T12:27:41;3.00;99.90
52211;DHT22;38179;52.756;6.906;2023-01-23T12:32:51;3.00;99.90
52211;DHT22;38179;52.756;6.906;2023-01-23T12:43:12;3.00;99.90
52211;DHT22;38179;52.756;6.906;2023-01-23T12:45:44;3.00;99.90
52211;DHT22;38179;52.756;6.906;2023-01-23T12:51:18;3.00;99.90
52211;DHT22;38179;52.756;6.906;2023-01-23T12:53:47;3.00;99.90
52211;DHT22;38179;52.756;6.906;2023-01-23T12:56:28;3.00;99.90
52211;DHT22;38179;52.756;6.906;2023-01-23T13:02:18;3.10;99.90
52211;DHT22;38179;52.756;6.906;2023-01-23T13:04:54;3.10;99.90
52211;DHT22;38179;52.756;6.906;2023-01-23T13:07:40;3.10;99.90
52211;DHT22;38179;52.756;6.906;2023-01-23T13:13:24;3.10;99.90
52211;DHT22;38179;52.756;6.906;2023-01-23T13:16:03;3.10;99.90
52211;DHT22;38179;52.756;6.906;2023-01-23T13:18:29;3.10;99.90
52211;DHT22;38179;52.756;6.906;2023-01-23T13:21:15;3.10;99.90
52211;DHT22;38179;52.756;6.906;2023-01-23T13:29:59;3.10;99.90
52211;DHT22;38179;52.756;6.906;2023-01-23T13:32:30;3.10;99.90
52211;DHT22;38179;52.756;6.906;2023-01-23T13:34:56;3.10;99.90
52211;DHT22;38179;52.756;6.906;2023-01-23T13:42:36;3.10;99.90
52211;DHT22;38179;52.756;6.906;2023-01-23T13:45:22;3.20;99.90
52211;DHT22;38179;52.756;6.906;2023-01-23T13:50:50;3.20;99.90
52211;DHT22;38179;52.756;6.906;2023-01-23T13:53:24;3.20;99.90
52211;DHT22;38179;52.756;6.906;2023-01-23T13:56:17;3.10;99.90
52211;DHT22;38179;52.756;6.906;2023-01-23T13:59:11;3.20;99.90
52211;DHT22;38179;52.756;6.906;2023-01-23T14:05:00;3.10;99.90
52211;DHT22;38179;52.756;6.906;2023-01-23T14:07:38;3.10;99.90
52211;DHT22;38179;52.756;6.906;2023-01-23T14:10:28;3.10;99.90
52211;DHT22;38179;52.756;6.906;2023-01-23T14:13:12;3.10;99.90
52211;DHT22;38179;52.756;6.906;2023-01-23T14:15:43;3.10;99.90
52211;DHT22;38179;52.756;6.906;2023-01-23T14:18:36;3.10;99.90
52211;DHT22;38179;52.756;6.906;2023-01-23T14:21:29;3.10;99.90
52211;DHT22;38179;52.756;6.906;2023-01-23T14:23:57;3.10;99.90
52211;DHT22;38179;52.756;6.906;2023-01-23T14:26:30;3.10;99.90
52211;DHT22;38179;52.756;6.906;2023-01-23T14:29:00;3.10;99.90
52211;DHT22;38179;52.756;6.906;2023-01-23T14:31:31;3.10;99.90
52211;DHT22;38179;52.756;6.906;2023-01-23T14:34:02;3.10;99.90
52211;DHT22;38179;52.756;6.906;2023-01-23T14:36:31;3.10;99.90
52211;DHT22;38179;52.756;6.906;2023-01-23T14:38:59;3.10;99.90
52211;DHT22;38179;52.756;6.906;2023-01-23T14:41:30;3.10;99.90
52211;DHT22;38179;52.756;6.906;2023-01-23T14:43:58;3.10;99.90
52211;DHT22;38179;52.756;6.906;2023-01-23T14:46:36;3.10;99.90
52211;DHT22;38179;52.756;6.906;2023-01-23T14:49:05;3.10;99.90
52211;DHT22;38179;52.756;6.906;2023-01-23T14:51:32;3.10;99.90
52211;DHT22;38179;52.756;6.906;2023-01-23T14:54:02;3.10;99.90
52211;DHT22;38179;52.756;6.906;2023-01-23T14:56:34;3.10;99.90
52211;DHT22;38179;52.756;6.906;2023-01-23T14:59:06;3.10;99.90
52211;DHT22;38179;52.756;6.906;2023-01-23T15:01:34;3.10;99.90
52211;DHT22;38179;52.756;6.906;2023-01-23T15:04:03;3.10;99.90
52211;DHT22;38179;52.756;6.906;2023-01-23T15:06:31;3.10;99.90
52211;DHT22;38179;52.756;6.906;2023-01-23T15:09:15;3.00;99.90
52211;DHT22;38179;52.756;6.906;2023-01-23T15:11:42;3.00;99.90
52211;DHT22;38179;52.756;6.906;2023-01-23T15:14:26;3.10;99.90
52211;DHT22;38179;52.756;6.906;2023-01-23T15:17:01;3.00;99.90
52211;DHT22;38179;52.756;6.906;2023-01-23T15:19:27;3.00;99.90
52211;DHT22;38179;52.756;6.906;2023-01-23T15:22:18;3.00;99.90
52211;DHT22;38179;52.756;6.906;2023-01-23T15:24:45;3.00;99.90
52211;DHT22;38179;52.756;6.906;2023-01-23T15:27:26;3.00;99.90
52211;DHT22;38179;52.756;6.906;2023-01-23T15:32:59;3.00;99.90
52211;DHT22;38179;52.756;6.906;2023-01-23T15:35:36;2.90;99.90
52211;DHT22;38179;52.756;6.906;2023-01-23T15:38:04;2.90;99.90
52211;DHT22;38179;52.756;6.906;2023-01-23T15:40:34;2.90;99.90
52211;DHT22;38179;52.756;6.906;2023-01-23T15:45:31;2.90;99.90
52211;DHT22;38179;52.756;6.906;2023-01-23T15:47:58;2.90;99.90
52211;DHT22;38179;52.756;6.906;2023-01-23T15:50:24;2.90;99.90
52211;DHT22;38179;52.756;6.906;2023-01-23T15:52:53;2.90;99.90
52211;DHT22;38179;52.756;6.906;2023-01-23T15:55:21;2.80;99.90
52211;DHT22;38179;52.756;6.906;2023-01-23T15:57:47;2.80;99.90
52211;DHT22;38179;52.756;6.906;2023-01-23T16:02:50;2.80;99.90
52211;DHT22;38179;52.756;6.906;2023-01-23T16:05:22;2.80;99.90
52211;DHT22;38179;52.756;6.906;2023-01-23T16:07:48;2.80;99.90
52211;DHT22;38179;52.756;6.906;2023-01-23T16:12:44;2.80;99.90
52211;DHT22;38179;52.756;6.906;2023-01-23T16:15:22;2.80;99.90
52211;DHT22;38179;52.756;6.906;2023-01-23T16:17:49;2.80;99.90
52211;DHT22;38179;52.756;6.906;2023-01-23T16:20:20;2.80;99.90
52211;DHT22;38179;52.756;6.906;2023-01-23T16:22:52;2.70;99.90
52211;DHT22;38179;52.756;6.906;2023-01-23T16:25:27;2.70;99.90
52211;DHT22;38179;52.756;6.906;2023-01-23T16:27:54;2.70;99.90
52211;DHT22;38179;52.756;6.906;2023-01-23T16:30:21;2.70;99.90
52211;DHT22;38179;52.756;6.906;2023-01-23T16:32:47;2.70;99.90
52211;DHT22;38179;52.756;6.906;2023-01-23T16:35:14;2.70;99.90
52211;DHT22;38179;52.756;6.906;2023-01-23T16:37:45;2.80;99.90
52211;DHT22;38179;52.756;6.906;2023-01-23T16:40:23;2.70;99.90
52211;DHT22;38179;52.756;6.906;2023-01-23T16:42:51;2.70;99.90
52211;DHT22;38179;52.756;6.906;2023-01-23T16:45:21;2.70;99.90
52211;DHT22;38179;52.756;6.906;2023-01-23T16:47:48;2.70;99.90
52211;DHT22;38179;52.756;6.906;2023-01-23T16:50:20;2.70;99.90
52211;DHT22;38179;52.756;6.906;2023-01-23T16:53:00;2.70;99.90
52211;DHT22;38179;52.756;6.906;2023-01-23T16:55:37;2.70;99.90
52211;DHT22;38179;52.756;6.906;2023-01-23T16:58:05;2.70;99.90
52211;DHT22;38179;52.756;6.906;2023-01-23T17:00:33;2.70;99.90
52211;DHT22;38179;52.756;6.906;2023-01-23T17:03:02;2.70;99.90
52211;DHT22;38179;52.756;6.906;2023-01-23T17:05:29;2.80;99.90
52211;DHT22;38179;52.756;6.906;2023-01-23T17:07:55;2.80;99.90
52211;DHT22;38179;52.756;6.906;2023-01-23T17:10:24;2.90;99.90
52211;DHT22;38179;52.756;6.906;2023-01-23T17:21:21;2.90;99.90
52211;DHT22;38179;52.756;6.906;2023-01-23T17:23:50;2.90;99.90
52211;DHT22;38179;52.756;6.906;2023-01-23T17:26:18;2.90;99.90
52211;DHT22;38179;52.756;6.906;2023-01-23T17:28:45;3.00;99.90
52211;DHT22;38179;52.756;6.906;2023-01-23T17:31:21;3.00;99.90
52211;DHT22;38179;52.756;6.906;2023-01-23T17:33:48;3.00;99.90
52211;DHT22;38179;52.756;6.906;2023-01-23T17:36:14;3.10;99.90
52211;DHT22;38179;52.756;6.906;2023-01-23T17:38:40;3.00;99.90
52211;DHT22;38179;52.756;6.906;2023-01-23T17:41:14;3.00;99.90
52211;DHT22;38179;52.756;6.906;2023-01-23T17:43:40;3.00;99.90
52211;DHT22;38179;52.756;6.906;2023-01-23T17:46:24;3.10;99.90
52211;DHT22;38179;52.756;6.906;2023-01-23T17:48:52;3.10;99.90
52211;DHT22;38179;52.756;6.906;2023-01-23T17:51:19;3.10;99.90
52211;DHT22;38179;52.756;6.906;2023-01-23T17:53:46;3.10;99.90
52211;DHT22;38179;52.756;6.906;2023-01-23T17:56:12;3.10;99.90
52211;DHT22;38179;52.756;6.906;2023-01-23T17:58:38;3.10;99.90
52211;DHT22;38179;52.756;6.906;2023-01-23T18:01:23;3.10;99.90
52211;DHT22;38179;52.756;6.906;2023-01-23T18:03:51;3.10;99.90
52211;DHT22;38179;52.756;6.906;2023-01-23T18:06:18;3.00;99.90
52211;DHT22;38179;52.756;6.906;2023-01-23T18:08:44;3.00;99.90
52211;DHT22;38179;52.756;6.906;2023-01-23T18:52:45;2.80;99.90
52211;DHT22;38179;52.756;6.906;2023-01-23T18:55:35;2.80;99.90